Time;durP1;ratioP1;P1;durP2;ratioP2;P2;SDS_P1;SDS_P2;PMS_P1;PMS_P2;Temp;Humidity;BMP_temperature;BMP_pressure;BME280_temperature;BME280_humidity;BME280_pressure;Samples;Min_cycle;Max_cycle;Signal;HPM_P1;HPM_P2
2022/06/11 00:02:20;;;;;;;;;;;17.50;99.90;;;;;;5013249;28;20045;-82
2022/06/11 00:04:45;;;;;;;9.35;4.90;;;17.50;99.90;;;;;;4996309;28;20297;-82
2022/06/11 00:07:16;;;;;;;8.50;4.97;;;17.50;99.90;;;;;;5012687;28;20038;-82
2022/06/11 00:09:42;;;;;;;9.15;4.80;;;17.40;99.90;;;;;;5012077;28;20038;-82
2022/06/11 00:12:09;;;;;;;9.82;4.95;;;17.40;99.90;;;;;;5013083;28;20490;-83
2022/06/11 00:14:36;;;;;;;8.02;5.00;;;17.40;99.90;;;;;;4996046;28;20129;-82
2022/06/11 00:17:03;;;;;;;7.90;4.72;;;17.30;99.90;;;;;;5012436;28;20046;-82
2022/06/11 00:19:30;;;;;;;9.73;5.20;;;17.30;99.90;;;;;;5012371;28;20057;-83
2022/06/11 00:21:57;;;;;;;8.73;4.68;;;17.20;99.90;;;;;;5012598;28;20125;-82
2022/06/11 00:24:25;;;;;;;9.18;4.75;;;17.20;99.90;;;;;;5011904;28;20440;-83
2022/06/11 00:26:52;;;;;;;10.77;5.18;;;17.10;99.90;;;;;;5011893;28;20033;-82
2022/06/11 00:29:20;;;;;;;9.07;5.10;;;17.10;99.90;;;;;;5012155;28;20498;-83
2022/06/11 00:31:47;;;;;;;8.75;5.28;;;17.10;99.90;;;;;;4996232;28;20072;-83
2022/06/11 00:34:14;;;;;;;11.20;5.93;;;17.10;99.90;;;;;;4996183;28;20038;-82
2022/06/11 00:36:40;;;;;;;7.80;5.07;;;17.00;99.90;;;;;;4996803;28;20556;-82
2022/06/11 00:39:08;;;;;;;9.90;4.97;;;16.90;99.90;;;;;;5001829;28;20108;-83
2022/06/11 00:41:36;;;;;;;7.15;3.90;;;16.90;99.90;;;;;;5011908;28;20044;-82
2022/06/11 00:44:02;;;;;;;7.40;3.67;;;16.80;99.90;;;;;;5011302;28;20128;-82
2022/06/11 00:46:54;;;;;;;9.38;3.53;;;16.70;99.90;;;;;;5011349;28;20117;-82
2022/06/11 00:49:41;;;;;;;8.55;4.20;;;16.70;99.90;;;;;;4972972;28;20087;-82
2022/06/11 00:52:25;;;;;;;9.02;3.33;;;16.60;99.90;;;;;;4995561;28;20038;-82
2022/06/11 00:55:04;;;;;;;8.55;3.28;;;16.60;99.90;;;;;;5011822;28;20049;-83
2022/06/11 00:57:34;;;;;;;7.30;3.40;;;16.40;99.90;;;;;;5011336;28;20450;-83
2022/06/11 01:00:07;;;;;;;7.43;3.58;;;16.40;99.90;;;;;;5011862;28;20050;-82
2022/06/11 01:02:33;;;;;;;10.50;3.25;;;16.30;99.90;;;;;;4995439;28;20483;-82
2022/06/11 01:05:02;;;;;;;10.35;3.33;;;16.20;99.90;;;;;;5011583;28;20046;-83
2022/06/11 01:07:36;;;;;;;7.97;3.03;;;16.20;99.90;;;;;;5011708;28;20513;-83
2022/06/11 01:10:25;;;;;;;8.63;3.00;;;16.10;99.90;;;;;;5011633;28;20096;-82
2022/06/11 01:13:08;;;;;;;7.20;2.80;;;16.00;99.90;;;;;;5011293;28;20121;-82
2022/06/11 01:15:42;;;;;;;7.63;2.05;;;16.00;99.90;;;;;;5011657;28;20081;-83
2022/06/11 01:18:31;;;;;;;8.63;2.33;;;15.90;99.90;;;;;;4995652;28;20549;-82
2022/06/11 01:21:11;;;;;;;10.07;2.22;;;15.90;99.90;;;;;;5011418;28;20046;-83
2022/06/11 01:24:05;;;;;;;8.80;2.35;;;15.80;99.90;;;;;;5010694;28;20042;-84
2022/06/11 01:27:03;;;;;;;7.00;1.80;;;15.80;99.90;;;;;;4995149;28;20499;-82
2022/06/11 01:30:00;;;;;;;7.05;1.70;;;15.80;99.90;;;;;;5011281;28;20049;-82
2022/06/11 01:32:42;;;;;;;7.32;2.10;;;15.70;99.90;;;;;;5002819;28;20096;-82
2022/06/11 01:35:29;;;;;;;7.18;2.15;;;15.70;99.90;;;;;;5015207;28;20018;-83
2022/06/11 01:38:00;;;;;;;9.63;2.05;;;15.70;99.90;;;;;;5017918;28;20042;-82
2022/06/11 01:41:08;;;;;;;7.45;2.20;;;15.60;99.90;;;;;;5015496;28;20042;-83
2022/06/11 01:43:39;;;;;;;11.00;2.42;;;15.50;99.90;;;;;;4998467;28;20049;-83
2022/06/11 01:46:19;;;;;;;8.20;2.20;;;15.50;99.90;;;;;;5015699;28;20398;-82
2022/06/11 01:48:52;;;;;;;8.40;1.98;;;15.40;99.90;;;;;;5014792;28;20562;-82
2022/06/11 01:51:44;;;;;;;7.97;1.85;;;15.40;99.90;;;;;;5015161;28;20104;-83
2022/06/11 01:54:13;;;;;;;8.65;2.40;;;15.40;99.90;;;;;;5007875;28;20145;-82
2022/06/11 01:56:52;;;;;;;6.47;1.90;;;15.40;99.90;;;;;;5014593;28;20458;-82
2022/06/11 02:00:08;;;;;;;5.95;1.88;;;15.40;99.90;;;;;;5014745;28;20049;-83
2022/06/11 02:02:47;;;;;;;10.45;2.10;;;15.40;99.90;;;;;;4981968;28;20151;-83
2022/06/11 02:05:19;;;;;;;7.88;1.77;;;15.30;99.90;;;;;;5014840;28;20505;-83
2022/06/11 02:08:19;;;;;;;6.95;1.80;;;15.30;99.90;;;;;;4998143;28;20401;-83
2022/06/11 02:11:01;;;;;;;10.80;1.92;;;15.30;99.90;;;;;;5014887;28;20077;-83
2022/06/11 02:13:31;;;;;;;9.55;1.95;;;15.30;99.90;;;;;;5014603;28;20045;-83
2022/06/11 02:16:38;;;;;;;10.30;2.10;;;15.30;99.90;;;;;;5014971;28;20077;-83
2022/06/11 02:19:09;;;;;;;8.18;1.92;;;15.30;99.90;;;;;;5014851;28;20516;-82
2022/06/11 02:21:43;;;;;;;8.60;1.95;;;15.20;99.90;;;;;;5014368;28;20052;-83
2022/06/11 02:24:15;;;;;;;9.98;2.00;;;15.10;99.90;;;;;;5014504;28;20050;-84
2022/06/11 02:26:46;;;;;;;9.93;1.75;;;15.00;99.90;;;;;;5013751;28;20136;-82
2022/06/11 02:29:15;;;;;;;8.52;2.08;;;15.00;99.90;;;;;;5014458;28;20042;-82
2022/06/11 02:31:55;;;;;;;9.43;2.15;;;15.00;99.90;;;;;;5014102;28;20034;-82
2022/06/11 02:34:23;;;;;;;7.20;2.10;;;15.00;99.90;;;;;;5014217;28;20080;-83
2022/06/11 02:36:58;;;;;;;9.73;2.17;;;14.90;99.90;;;;;;5014481;28;20108;-83
2022/06/11 02:39:23;;;;;;;9.25;2.45;;;14.90;99.90;;;;;;5014407;28;20080;-82
2022/06/11 02:41:51;;;;;;;8.65;1.90;;;14.90;99.90;;;;;;5013908;28;20494;-82
2022/06/11 02:44:16;;;;;;;10.23;2.03;;;14.90;99.90;;;;;;5014215;28;20063;-83
2022/06/11 02:46:43;;;;;;;9.30;2.30;;;14.80;99.90;;;;;;4997451;28;20045;-83
2022/06/11 02:49:11;;;;;;;;;;;14.70;99.90;;;;;;4998481;28;20041;-83
2022/06/11 02:51:37;;;;;;;9.20;2.03;;;14.70;99.90;;;;;;5013628;28;19995;-84
2022/06/11 02:54:03;;;;;;;9.27;2.08;;;14.60;99.90;;;;;;5014803;28;20050;-82
2022/06/11 02:56:30;;;;;;;11.27;2.42;;;14.60;99.90;;;;;;5013533;28;20042;-81
2022/06/11 02:58:56;;;;;;;10.05;2.38;;;14.50;99.90;;;;;;5013702;28;20073;-83
2022/06/11 03:01:23;;;;;;;9.07;2.20;;;14.50;99.90;;;;;;5013692;28;20723;-83
2022/06/11 03:03:51;;;;;;;5.78;1.90;;;14.50;99.90;;;;;;4997371;28;20064;-83
2022/06/11 03:06:19;;;;;;;6.25;2.30;;;14.50;99.90;;;;;;5013983;28;20390;-83
2022/06/11 03:08:45;;;;;;;10.50;2.85;;;14.40;99.90;;;;;;4997306;28;20482;-82
2022/06/11 03:11:12;;;;;;;9.63;2.67;;;14.50;99.90;;;;;;5013724;28;20144;-83
2022/06/11 03:13:37;;;;;;;5.47;2.20;;;14.60;99.90;;;;;;5013531;28;20041;-84
2022/06/11 03:16:04;;;;;;;8.00;2.50;;;14.60;99.90;;;;;;5013537;28;20108;-82
2022/06/11 03:18:31;;;;;;;8.95;2.30;;;14.50;99.90;;;;;;5013591;28;20054;-83
2022/06/11 03:20:57;;;;;;;10.60;2.60;;;14.40;99.90;;;;;;5013450;28;20096;-83
2022/06/11 03:23:23;;;;;;;9.65;2.78;;;14.40;99.90;;;;;;5013313;28;20413;-82
2022/06/11 03:25:49;;;;;;;10.20;2.90;;;14.30;99.90;;;;;;4997064;28;20038;-82
2022/06/11 03:28:22;;;;;;;9.70;2.97;;;14.30;99.90;;;;;;5013794;28;20044;-82
2022/06/11 03:30:48;;;;;;;13.45;2.63;;;14.30;99.90;;;;;;5013336;28;20049;-83
2022/06/11 03:33:15;;;;;;;9.98;2.78;;;14.20;99.90;;;;;;5013496;28;20041;-83
2022/06/11 03:35:43;;;;;;;8.27;2.97;;;14.20;99.90;;;;;;5012761;28;20144;-83
2022/06/11 03:38:10;;;;;;;11.23;3.22;;;14.30;99.90;;;;;;4996539;28;20128;-83
2022/06/11 03:40:36;;;;;;;12.55;3.20;;;14.30;99.90;;;;;;5012856;28;20038;-83
2022/06/11 03:43:02;;;;;;;;;;;14.30;99.90;;;;;;4996865;28;20096;-82
2022/06/11 03:45:29;;;;;;;12.32;3.70;;;14.30;99.90;;;;;;5012862;28;19917;-83
2022/06/11 03:47:54;;;;;;;8.07;2.90;;;14.30;99.90;;;;;;5012942;28;20125;-82
2022/06/11 03:50:26;;;;;;;7.43;2.95;;;14.30;99.90;;;;;;5012949;28;20120;-83
2022/06/11 03:52:52;;;;;;;8.05;3.05;;;14.30;99.90;;;;;;4996582;28;20044;-83
2022/06/11 03:55:19;;;;;;;11.15;3.50;;;14.30;99.90;;;;;;5012849;28;20125;-82
2022/06/11 03:57:46;;;;;;;12.27;3.45;;;14.20;99.90;;;;;;5011311;28;20049;-82
2022/06/11 04:00:14;;;;;;;;;;;14.20;99.90;;;;;;5013122;28;20129;-82
2022/06/11 04:02:40;;;;;;;11.23;3.38;;;14.30;99.90;;;;;;5012431;28;20333;-83
2022/06/11 04:05:07;;;;;;;12.13;3.85;;;14.30;99.90;;;;;;5015391;28;20044;-83
2022/06/11 04:07:33;;;;;;;13.18;3.47;;;14.30;99.90;;;;;;5012819;28;20486;-83
2022/06/11 04:09:59;;;;;;;9.98;3.05;;;14.30;99.90;;;;;;4996225;28;20125;-83
2022/06/11 04:12:25;;;;;;;11.88;2.95;;;14.40;99.90;;;;;;4995529;28;20046;-83
2022/06/11 04:14:51;;;;;;;10.13;3.28;;;14.40;99.90;;;;;;5012045;28;20042;-83
2022/06/11 04:17:23;;;;;;;;;;;14.50;99.90;;;;;;5012671;28;20060;-82
2022/06/11 04:19:50;;;;;;;10.20;3.15;;;14.50;99.90;;;;;;5012372;28;20031;-82
2022/06/11 04:22:17;;;;;;;11.48;3.60;;;14.50;99.90;;;;;;5012284;28;20041;-82
2022/06/11 04:24:44;;;;;;;11.52;3.30;;;14.60;99.90;;;;;;5011788;28;20537;-82
2022/06/11 04:27:12;;;;;;;9.52;3.33;;;14.60;99.90;;;;;;5012331;28;20478;-82
2022/06/11 04:29:43;;;;;;;13.55;3.78;;;14.60;99.90;;;;;;5011587;28;20041;-83
2022/06/11 04:32:15;;;;;;;14.23;3.95;;;14.60;99.90;;;;;;5011855;28;20077;-84
2022/06/11 04:34:42;;;;;;;15.02;3.53;;;14.60;99.90;;;;;;5011581;28;20060;-83
2022/06/11 04:37:13;;;;;;;12.40;3.60;;;14.60;99.90;;;;;;5011823;28;20074;-83
2022/06/11 04:39:43;;;;;;;8.90;3.25;;;14.70;99.90;;;;;;5011905;28;20073;-84
2022/06/11 04:42:11;;;;;;;13.52;3.28;;;14.70;99.90;;;;;;5012290;28;20042;-82
2022/06/11 04:44:38;;;;;;;12.63;3.13;;;14.80;99.90;;;;;;4995339;28;20046;-83
2022/06/11 04:47:05;;;;;;;12.90;3.05;;;14.70;99.90;;;;;;4995176;28;20176;-83
2022/06/11 04:49:31;;;;;;;12.93;3.00;;;14.80;99.90;;;;;;5011508;28;20049;-83
2022/06/11 04:51:56;;;;;;;12.52;3.15;;;14.80;99.90;;;;;;5018477;28;20058;-83
2022/06/11 04:54:23;;;;;;;11.75;3.20;;;14.90;99.90;;;;;;5016922;28;20042;-83
2022/06/11 04:56:49;;;;;;;11.52;3.05;;;14.90;99.90;;;;;;5011317;28;20076;-83
2022/06/11 04:59:15;;;;;;;14.55;3.55;;;15.00;99.90;;;;;;5011538;28;20045;-83
2022/06/11 05:01:42;;;;;;;16.38;3.13;;;15.20;99.90;;;;;;5011467;28;20050;-83
2022/06/11 05:04:09;;;;;;;8.38;3.30;;;15.20;99.90;;;;;;5011446;28;20049;-82
2022/06/11 05:06:39;;;;;;;13.20;3.33;;;15.20;99.90;;;;;;4994510;28;20038;-82
2022/06/11 05:09:10;;;;;;;13.40;3.45;;;15.30;99.90;;;;;;4995152;28;20124;-83
2022/06/11 05:11:36;;;;;;;10.75;3.28;;;15.30;99.90;;;;;;5011709;28;20483;-83
2022/06/11 05:14:02;;;;;;;13.45;3.80;;;15.40;99.90;;;;;;4994774;28;20148;-83
2022/06/11 05:16:28;;;;;;;12.02;3.17;;;15.40;99.90;;;;;;5011118;28;20128;-83
2022/06/11 05:18:54;;;;;;;12.77;3.10;;;15.50;99.90;;;;;;5011461;28;20092;-82
2022/06/11 05:21:20;;;;;;;10.50;3.17;;;15.50;99.90;;;;;;5011305;28;20042;-82
2022/06/11 05:23:46;;;;;;;16.25;3.42;;;15.60;99.90;;;;;;5010538;28;20092;-82
2022/06/11 05:26:28;;;;;;;16.83;3.47;;;15.70;99.90;;;;;;5011495;28;20042;-83
2022/06/11 05:28:54;;;;;;;15.48;3.58;;;15.80;99.90;;;;;;5010931;28;20066;-83
2022/06/11 05:31:20;;;;;;;12.98;3.20;;;16.00;99.90;;;;;;5011454;28;20544;-83
2022/06/11 05:33:45;;;;;;;14.30;3.50;;;16.10;99.90;;;;;;5011338;28;20057;-82
2022/06/11 05:36:13;;;;;;;10.35;3.35;;;16.20;99.90;;;;;;5011162;28;20527;-83
2022/06/11 05:38:40;;;;;;;18.10;3.60;;;16.30;99.90;;;;;;5010787;28;20050;-83
2022/06/11 05:41:06;;;;;;;19.00;4.53;;;16.40;99.90;;;;;;5011236;28;20052;-82
2022/06/11 05:43:32;;;;;;;13.80;3.08;;;16.50;99.90;;;;;;5010369;28;20049;-82
2022/06/11 05:45:59;;;;;;;18.15;3.92;;;16.60;99.90;;;;;;5010789;28;20038;-82
2022/06/11 05:48:32;;;;;;;13.90;3.35;;;16.60;99.90;;;;;;5011038;28;20049;-83
2022/06/11 05:50:59;;;;;;;17.85;3.67;;;16.70;99.90;;;;;;4994424;28;20042;-83
2022/06/11 05:53:28;;;;;;;17.20;3.88;;;16.90;99.90;;;;;;5010839;28;20049;-82
2022/06/11 05:55:57;;;;;;;17.85;3.70;;;17.00;99.90;;;;;;5010904;28;20049;-82
2022/06/11 05:58:29;;;;;;;13.52;3.35;;;17.10;99.90;;;;;;5010718;28;20050;-83
2022/06/11 06:00:56;;;;;;;16.30;3.88;;;17.20;99.90;;;;;;5010834;28;20049;-83
2022/06/11 06:03:22;;;;;;;17.55;3.70;;;17.30;99.90;;;;;;5010835;28;20469;-83
2022/06/11 06:05:48;;;;;;;17.67;3.63;;;17.60;99.90;;;;;;5010741;28;20045;-83
2022/06/11 06:08:14;;;;;;;15.38;4.18;;;17.90;99.90;;;;;;4994739;28;20042;-83
2022/06/11 06:10:39;;;;;;;17.98;4.13;;;18.20;99.90;;;;;;5010466;28;20073;-83
2022/06/11 06:13:45;;;;;;;19.33;4.03;;;18.40;99.90;;;;;;5017035;28;20098;-82
2022/06/11 06:15:52;;;;;;;18.20;3.95;;;18.60;99.90;;;;;;5010574;28;20128;-84
2022/06/11 06:18:18;;;;;;;20.77;4.10;;;18.80;99.90;;;;;;4994056;28;20042;-82
2022/06/11 06:20:44;;;;;;;16.95;3.65;;;19.10;99.90;;;;;;5010464;28;20042;-84
2022/06/11 06:23:10;;;;;;;16.42;3.55;;;19.10;99.90;;;;;;5014032;28;20046;-82
2022/06/11 06:25:36;;;;;;;13.45;3.50;;;19.20;99.90;;;;;;5013790;28;20042;-83
2022/06/11 06:28:01;;;;;;;19.58;4.28;;;19.20;99.90;;;;;;4997898;28;20057;-83
2022/06/11 06:30:27;;;;;;;18.85;3.40;;;19.60;99.90;;;;;;5013983;28;20128;-83
2022/06/11 06:32:52;;;;;;;16.27;3.50;;;19.60;99.90;;;;;;5013839;28;20465;-83
2022/06/11 06:35:18;;;;;;;16.10;3.55;;;19.80;99.90;;;;;;5014044;28;20117;-82
2022/06/11 06:37:44;;;;;;;18.27;3.40;;;19.90;99.90;;;;;;4996974;28;20038;-83
2022/06/11 06:40:10;;;;;;;17.13;3.45;;;19.90;99.90;;;;;;5013753;28;20452;-83
2022/06/11 06:42:35;;;;;;;13.82;3.72;;;19.90;99.90;;;;;;5013804;28;20500;-82
2022/06/11 06:45:02;;;;;;;16.80;4.20;;;20.00;99.90;;;;;;5013705;28;20136;-83
2022/06/11 06:47:28;;;;;;;15.38;3.72;;;20.10;99.90;;;;;;5013599;28;20045;-83
2022/06/11 06:49:54;;;;;;;17.25;4.10;;;20.30;99.90;;;;;;4997679;28;20050;-84
2022/06/11 06:52:20;;;;;;;15.40;3.50;;;20.30;99.90;;;;;;5013832;28;20486;-84
2022/06/11 06:54:46;;;;;;;17.50;4.10;;;20.40;99.90;;;;;;5013523;28;20401;-84
2022/06/11 06:57:12;;;;;;;17.77;4.82;;;20.50;99.90;;;;;;4996874;28;20145;-83
2022/06/11 06:59:38;;;;;;;16.95;4.22;;;20.50;99.90;;;;;;5013397;28;20133;-84
2022/06/11 07:02:04;;;;;;;14.95;3.40;;;20.60;99.90;;;;;;5014042;28;20490;-83
2022/06/11 07:04:29;;;;;;;17.27;3.75;;;20.80;99.90;;;;;;5013032;28;20044;-82
2022/06/11 07:06:55;;;;;;;16.35;3.47;;;20.80;99.90;;;;;;4997191;28;20056;-82
2022/06/11 07:09:21;;;;;;;13.02;3.13;;;20.90;99.90;;;;;;5013771;28;20034;-85
2022/06/11 07:11:47;;;;;;;;;;;21.00;99.90;;;;;;4998577;28;20505;-85
2022/06/11 07:14:13;;;;;;;19.00;3.87;;;21.10;99.90;;;;;;4997859;28;19924;-81
2022/06/11 07:16:47;;;;;;;19.17;3.35;;;21.10;99.90;;;;;;5013266;28;20054;-82
2022/06/11 07:19:19;;;;;;;15.50;3.42;;;21.00;99.90;;;;;;5013459;28;20042;-82
2022/06/11 07:21:50;;;;;;;18.23;4.15;;;21.20;99.90;;;;;;5012808;28;20041;-82
2022/06/11 07:24:20;;;;;;;14.48;4.03;;;21.30;99.90;;;;;;4996782;28;20501;-82
2022/06/11 07:26:51;;;;;;;16.60;3.53;;;21.60;99.90;;;;;;5013040;28;20046;-83
2022/06/11 07:29:25;;;;;;;13.73;3.35;;;21.70;99.90;;;;;;5013411;28;20501;-83
2022/06/11 07:31:56;;;;;;;17.20;3.55;;;21.60;99.90;;;;;;5013307;28;20050;-83
2022/06/11 07:34:22;;;;;;;17.55;3.50;;;21.60;99.90;;;;;;5018095;28;20095;-82
2022/06/11 07:36:48;;;;;;;;;;;21.60;99.90;;;;;;4997106;28;20556;-83
2022/06/11 07:39:15;;;;;;;17.60;3.70;;;21.80;99.90;;;;;;4996950;28;19924;-84
2022/06/11 07:41:42;;;;;;;17.83;3.45;;;22.00;99.90;;;;;;5012743;28;20050;-84
2022/06/11 07:44:08;;;;;;;12.40;3.10;;;22.30;99.90;;;;;;4996164;28;20100;-85
2022/06/11 07:46:33;;;;;;;;;;;22.40;99.90;;;;;;5012893;28;20045;-85
2022/06/11 07:48:59;;;;;;;15.48;3.90;;;22.30;99.90;;;;;;5012931;28;19921;-85
2022/06/11 07:51:24;;;;;;;;;;;22.10;99.90;;;;;;5013475;28;20367;-85
2022/06/11 07:53:50;;;;;;;16.10;3.60;;;22.00;99.90;;;;;;5013224;28;19944;-86
2022/06/11 07:56:19;;;;;;;15.95;3.50;;;22.20;99.90;;;;;;5012508;28;20042;-84
2022/06/11 07:58:45;;;;;;;13.07;3.53;;;22.40;99.90;;;;;;5012103;28;20497;-86
2022/06/11 08:01:11;;;;;;;15.38;3.38;;;22.60;99.90;;;;;;5011987;28;20074;-85
2022/06/11 08:03:38;;;;;;;;;;;22.70;99.90;;;;;;5012637;28;20057;-85
2022/06/11 08:06:05;;;;;;;14.35;3.47;;;22.50;99.90;;;;;;4996519;28;19972;-83
2022/06/11 08:08:32;;;;;;;17.35;3.25;;;22.80;99.90;;;;;;4995921;28;20519;-85
2022/06/11 08:10:59;;;;;;;11.93;2.70;;;22.90;99.90;;;;;;5001357;28;20084;-84
2022/06/11 08:13:25;;;;;;;11.70;2.88;;;23.00;99.90;;;;;;4996355;28;20046;-83
2022/06/11 08:15:52;;;;;;;;;;;23.00;99.90;;;;;;5011681;28;20046;-84
2022/06/11 08:18:19;;;;;;;14.52;3.58;;;23.30;99.90;;;;;;4995436;28;19917;-88
2022/06/11 08:20:46;;;;;;;15.40;3.53;;;23.40;99.90;;;;;;4979002;28;20129;-81
2022/06/11 08:23:12;;;;;;;18.08;3.10;;;23.50;99.90;;;;;;4994967;28;20053;-81
2022/06/11 08:25:37;;;;;;;;;;;23.60;99.90;;;;;;4995168;28;20474;-82
2022/06/11 08:28:04;;;;;;;15.02;2.90;;;23.60;99.90;;;;;;5012010;28;19917;-85
2022/06/11 08:30:32;;;;;;;13.80;3.35;;;23.70;99.90;;;;;;5004365;28;20702;-87
2022/06/11 08:32:58;;;;;;;14.88;3.10;;;23.80;99.90;;;;;;4996021;28;20038;-88
2022/06/11 08:35:26;;;;;;;;;;;23.70;99.90;;;;;;4996402;28;20044;-89
2022/06/11 08:37:52;;;;;;;16.90;3.75;;;23.80;99.90;;;;;;4995444;28;19921;-87
2022/06/11 08:40:25;;;;;;;;;;;24.10;99.90;;;;;;5013261;28;20445;-85
2022/06/11 08:43:04;;;;;;;13.30;3.00;;;24.40;99.90;;;;;;5013180;28;20003;-84
2022/06/11 08:45:38;;;;;;;11.20;2.85;;;24.60;99.90;;;;;;4996298;28;20506;-86
2022/06/11 08:48:13;;;;;;;14.15;2.70;;;24.60;99.90;;;;;;5002853;28;20042;-88
2022/06/11 08:50:51;;;;;;;12.68;3.10;;;24.60;99.90;;;;;;4996823;28;20033;-90
2022/06/11 08:53:17;;;;;;;11.98;3.05;;;24.80;99.90;;;;;;4996449;28;20479;-89
2022/06/11 08:55:43;;;;;;;13.93;3.20;;;24.90;99.90;;;;;;4980009;28;20048;-86
2022/06/11 08:58:26;;;;;;;13.00;2.85;;;24.80;99.90;;;;;;4979557;28;20107;-87
2022/06/11 09:01:19;;;;;;;12.35;2.83;;;24.60;99.90;;;;;;5013728;28;20038;-89
2022/06/11 09:04:14;;;;;;;14.57;2.50;;;24.60;99.90;;;;;;5011851;28;20042;-88
2022/06/11 09:07:02;;;;;;;10.70;2.30;;;24.80;99.90;;;;;;4986712;28;20081;-91
2022/06/11 09:09:39;;;;;;;11.75;2.63;;;24.90;99.90;;;;;;4996016;28;20099;-88
2022/06/11 09:12:18;;;;;;;13.93;2.72;;;24.90;99.90;;;;;;5012281;28;20044;-90
2022/06/11 09:14:49;;;;;;;8.57;2.08;;;25.00;99.90;;;;;;5019235;28;20463;-91
2022/06/11 09:17:31;;;;;;;17.10;2.53;;;25.10;99.90;;;;;;5007106;28;20057;-91
2022/06/11 09:20:07;;;;;;;11.88;2.42;;;25.40;99.90;;;;;;5001439;28;20046;-87
2022/06/11 09:23:17;;;;;;;9.20;2.28;;;25.50;99.90;;;;;;4999576;28;20045;-87
2022/06/11 09:25:43;;;;;;;11.57;2.40;;;25.60;99.90;;;;;;4984959;28;20050;-87
2022/06/11 09:28:23;;;;;;;13.00;2.22;;;25.80;99.90;;;;;;5004612;28;20564;-87
2022/06/11 09:31:12;;;;;;;12.02;2.90;;;25.80;99.90;;;;;;4994818;28;20545;-87
2022/06/11 09:33:43;;;;;;;9.55;2.13;;;25.70;99.90;;;;;;4975267;28;20050;-88
2022/06/11 09:36:20;;;;;;;7.65;1.80;;;25.60;99.90;;;;;;4975814;28;20118;-87
2022/06/11 09:38:46;;;;;;;10.50;2.40;;;25.80;99.90;;;;;;4991756;28;20082;-87
2022/06/11 09:41:42;;;;;;;8.90;1.92;;;25.90;99.90;;;;;;5006849;28;20509;-88
2022/06/11 09:44:27;;;;;;;8.10;1.92;;;26.00;99.90;;;;;;5011396;28;20081;-88
2022/06/11 09:47:05;;;;;;;9.75;1.88;;;26.10;99.90;;;;;;5018101;28;20383;-86
2022/06/11 09:49:58;;;;;;;11.73;2.08;;;26.10;99.90;;;;;;5011284;28;20066;-86
2022/06/11 09:52:41;;;;;;;9.73;2.50;;;26.30;99.90;;;;;;4994873;28;20042;-88
2022/06/11 09:55:26;;;;;;;12.30;2.30;;;26.00;99.90;;;;;;5011541;28;20445;-88
2022/06/11 09:58:42;;;;;;;10.68;2.92;;;26.00;99.90;;;;;;5003288;28;20490;-86
2022/06/11 10:01:17;;;;;;;13.32;2.53;;;26.20;99.90;;;;;;4996001;28;20119;-87
2022/06/11 10:03:53;;;;;;;8.68;2.13;;;26.20;99.90;;;;;;4998255;28;20042;-87
2022/06/11 10:06:24;;;;;;;;;;;26.20;99.90;;;;;;4998909;28;20091;-88
2022/06/11 10:08:57;;;;;;;9.50;2.03;;;26.30;99.90;;;;;;5003651;28;20000;-89
2022/06/11 10:11:24;;;;;;;11.70;1.88;;;26.50;99.90;;;;;;4998725;28;20041;-89
2022/06/11 10:14:29;;;;;;;11.13;2.45;;;26.50;99.90;;;;;;4997823;28;20096;-88
2022/06/11 10:17:16;;;;;;;9.05;1.95;;;26.70;99.80;;;;;;5014452;28;20405;-86
2022/06/11 10:20:00;;;;;;;8.20;1.85;;;26.80;99.90;;;;;;5020612;28;20077;-88
2022/06/11 10:22:49;;;;;;;10.52;1.90;;;26.90;97.60;;;;;;5014980;28;20493;-88
2022/06/11 10:25:34;;;;;;;8.27;1.55;;;27.00;97.80;;;;;;4997910;28;20092;-90
2022/06/11 10:28:08;;;;;;;8.90;2.00;;;26.60;96.70;;;;;;4999752;28;20044;-90
2022/06/11 10:30:48;;;;;;;10.52;1.83;;;26.50;96.80;;;;;;5014870;28;20568;-90
2022/06/11 10:33:33;;;;;;;8.20;1.50;;;26.50;97.10;;;;;;4998080;28;20076;-89
2022/06/11 10:36:24;;;;;;;10.55;1.70;;;26.50;97.80;;;;;;5015439;28;20482;-90
2022/06/11 10:39:06;;;;;;;9.18;1.63;;;26.50;97.90;;;;;;5014500;28;20038;-89
2022/06/11 10:41:56;;;;;;;10.63;2.13;;;26.80;97.90;;;;;;5014828;28;20516;-87
2022/06/11 10:44:33;;;;;;;8.82;2.00;;;26.70;97.30;;;;;;5014431;28;20077;-89
2022/06/11 10:46:59;;;;;;;10.18;1.90;;;26.90;98.10;;;;;;5014654;28;20546;-88
2022/06/11 10:49:27;;;;;;;8.82;1.80;;;26.90;97.70;;;;;;4997651;28;20115;-88
2022/06/11 10:52:14;;;;;;;7.38;2.17;;;27.10;98.60;;;;;;4983065;28;20042;-87
2022/06/11 10:54:40;;;;;;;8.73;2.17;;;27.00;98.60;;;;;;4978361;28;20065;-88
2022/06/11 10:57:24;;;;;;;8.05;1.65;;;27.00;97.30;;;;;;4977929;28;20502;-92
2022/06/11 11:00:16;;;;;;;7.32;2.08;;;27.20;97.00;;;;;;4978910;28;20053;-91
2022/06/11 11:02:45;;;;;;;7.50;2.00;;;27.20;97.00;;;;;;4979072;28;20053;-92
2022/06/11 11:05:14;;;;;;;10.90;2.00;;;27.20;96.50;;;;;;4986342;28;20046;-89
2022/06/11 11:07:50;;;;;;;9.70;1.80;;;27.20;96.80;;;;;;4997335;28;20193;-89
2022/06/11 11:10:48;;;;;;;8.35;1.92;;;27.40;96.40;;;;;;4997656;28;20046;-91
2022/06/11 11:13:35;;;;;;;10.15;2.28;;;27.20;96.70;;;;;;4985400;28;20544;-87
2022/06/11 11:16:13;;;;;;;11.45;2.08;;;26.90;95.50;;;;;;5002938;28;20184;-90
2022/06/11 11:18:56;;;;;;;9.07;1.77;;;26.80;96.60;;;;;;5013745;28;20045;-90
2022/06/11 11:21:38;;;;;;;10.77;1.95;;;26.80;96.40;;;;;;5014130;28;20064;-88
2022/06/11 11:24:11;;;;;;;8.52;1.88;;;26.50;96.10;;;;;;4996987;28;20042;-88
2022/06/11 11:26:47;;;;;;;11.98;2.28;;;26.20;97.40;;;;;;5012722;28;20049;-88
2022/06/11 11:29:27;;;;;;;10.27;2.25;;;26.50;96.90;;;;;;5013269;28;20038;-86
2022/06/11 11:31:57;;;;;;;6.95;1.80;;;26.70;96.10;;;;;;4996905;28;20034;-88
2022/06/11 11:34:41;;;;;;;8.70;1.77;;;26.70;96.50;;;;;;4997156;28;20509;-84
2022/06/11 11:37:15;;;;;;;10.60;1.85;;;26.90;96.00;;;;;;4996685;28;20128;-89
2022/06/11 11:40:23;;;;;;;6.57;1.45;;;26.80;95.50;;;;;;4996263;28;20116;-85
2022/06/11 11:42:54;;;;;;;7.80;1.75;;;26.90;95.20;;;;;;5012481;28;20041;-84
2022/06/11 11:45:23;;;;;;;10.57;1.75;;;26.70;95.80;;;;;;5012607;28;20046;-85
2022/06/11 11:47:52;;;;;;;10.30;1.92;;;26.60;95.90;;;;;;4996648;28;20860;-87
2022/06/11 11:50:28;;;;;;;10.23;1.70;;;27.10;96.30;;;;;;5012977;28;20041;-86
2022/06/11 11:53:13;;;;;;;7.55;1.70;;;27.40;95.80;;;;;;5012737;28;20068;-86
2022/06/11 11:55:42;;;;;;;10.68;1.80;;;27.60;95.70;;;;;;5012757;28;20398;-87
2022/06/11 11:58:21;;;;;;;5.75;1.45;;;27.30;95.70;;;;;;5012619;28;20398;-87
2022/06/11 12:01:01;;;;;;;11.45;2.10;;;27.30;95.50;;;;;;5012509;28;20494;-82
2022/06/11 12:03:40;;;;;;;9.43;2.00;;;27.40;95.40;;;;;;5012336;28;20038;-82
2022/06/11 12:06:11;;;;;;;10.48;1.60;;;27.00;94.60;;;;;;5016069;28;20041;-81
2022/06/11 12:08:44;;;;;;;6.95;1.30;;;26.90;95.30;;;;;;5012348;28;20548;-82
2022/06/11 12:11:34;;;;;;;7.13;2.00;;;27.00;95.30;;;;;;5012466;28;20072;-82
2022/06/11 12:14:04;;;;;;;8.75;2.20;;;27.40;94.50;;;;;;5012940;28;20049;-82
2022/06/11 12:16:36;;;;;;;6.25;1.67;;;27.50;95.00;;;;;;5016795;28;20084;-82
2022/06/11 12:19:18;;;;;;;8.52;2.05;;;27.90;94.70;;;;;;5011304;28;20494;-82
2022/06/11 12:21:52;;;;;;;8.18;1.58;;;27.80;94.90;;;;;;5012134;28;20462;-81
2022/06/11 12:24:26;;;;;;;7.75;1.92;;;27.70;94.50;;;;;;5012053;28;20120;-82
2022/06/11 12:26:59;;;;;;;5.68;1.38;;;28.00;94.20;;;;;;4995593;28;20049;-82
2022/06/11 12:29:35;;;;;;;8.25;1.63;;;28.20;93.40;;;;;;5011868;28;20402;-82
2022/06/11 12:32:09;;;;;;;7.07;1.58;;;28.10;94.50;;;;;;5011696;28;20100;-82
2022/06/11 12:34:35;;;;;;;6.18;1.40;;;28.40;93.90;;;;;;5011532;28;20054;-82
2022/06/11 12:37:22;;;;;;;6.43;1.33;;;28.10;93.30;;;;;;5011816;28;20057;-82
2022/06/11 12:40:13;;;;;;;7.60;1.50;;;28.10;92.60;;;;;;5012996;28;20046;-81
2022/06/11 12:43:08;;;;;;;5.07;1.25;;;28.20;92.70;;;;;;5013699;28;20045;-82
2022/06/11 12:45:55;;;;;;;6.35;1.17;;;28.20;92.50;;;;;;5017468;28;20049;-82
2022/06/11 12:48:48;;;;;;;6.32;1.52;;;27.90;92.80;;;;;;5015691;28;20069;-81
2022/06/11 12:51:22;;;;;;;8.18;1.35;;;28.20;92.90;;;;;;5011631;28;20045;-81
2022/06/11 12:54:32;;;;;;;5.88;1.05;;;28.30;92.70;;;;;;5015029;28;20045;-81
2022/06/11 12:57:27;;;;;;;5.68;1.15;;;28.40;92.90;;;;;;5010701;28;20549;-81
2022/06/11 13:00:27;;;;;;;4.88;1.10;;;28.30;92.50;;;;;;5011311;28;20049;-82
2022/06/11 13:03:30;;;;;;;6.10;1.48;;;28.20;92.80;;;;;;5011441;28;20490;-82
2022/06/11 13:06:10;;;;;;;7.63;1.45;;;27.70;93.00;;;;;;5011115;28;20146;-81
2022/06/11 13:09:16;;;;;;;4.97;1.27;;;27.70;93.60;;;;;;4994593;28;20042;-82
2022/06/11 13:11:59;;;;;;;5.95;1.17;;;27.50;93.10;;;;;;5010958;28;20040;-82
2022/06/11 13:14:52;;;;;;;4.40;1.20;;;27.40;93.60;;;;;;5011230;28;20133;-82
2022/06/11 13:17:25;;;;;;;4.57;1.10;;;27.20;93.10;;;;;;5011327;28;20478;-82
2022/06/11 13:20:08;;;;;;;6.82;1.13;;;27.50;92.90;;;;;;5010720;28;20103;-81